Portada
METAR-TAF:

METAR-TAF

Aeropuertos :

Yida, Arabia Saudita

Aeropuerto Internacional Rey Abdulaziz

latitud: 21-42N, longitud: 039-11E, altitud: 15 m

Observación

El informe se hizo hace 26 minutos, a las 09:00 UTC
Viento 10 kt del oeste-suroeste
Temperatura 33°C
Humedad 46%
Presión 1009 hPa
Visibilidad 10 km o más
sin nubes por debajo de 1500 m y sin presencia de cumulonimbus.

METAR: OEJN 190900Z 24010KT CAVOK 33/20 Q1009 NOSIG

Hora: 12:26 (09:26 UTC)

Pronóstico

El informe se hizo hace 4 horas y 26 minutos, a las 05:00 UTC
Pronóstico válido del 19 a las 06 UTC al 20 a las 12 UTC
Viento 13 kt del oeste
Visibilidad 10 km o más
Escasas nubes a una altura de 4000 ft
Nubes dispersas a una altura de 9000 ft
Evolucionando progresivamente
del 19 a las 18 UTC al 19 a las 20 UTC
Viento 6 kt del norte

TAF: OEJN 190500Z 1906/2012 26013KT 9999 FEW040 SCT090 BECMG 1918/1920 01006KT

Observaciones y pronósticos meteorológicos de más de 4000 aeropuertos (mensajes METAR y TAF).

Los puntos amarillos y rojos representan las estaciones disponibles.

Ponga el ratón en el punto deseado para ver el nombre de la estación.

Haga clic para ver las observaciones y los pronósticos meteorológicos.

Para cambiar el mapa : haga clic en los botones verdes con una cruz de color negro para hacer un zoom, en el botón verde con un guión para alejar o en las flechas verdes para mapas adyacentes.


METAR-TAF: